sensor_id;sensor_type;location;lat;lon;timestamp;P1;durP1;ratioP1;P2;durP2;ratioP2
38226;SDS011;24026;49.446;8.576;2023-02-17T00:02:04;127.72;;;114.15;;
38226;SDS011;24026;49.446;8.576;2023-02-17T00:04:29;128.18;;;114.43;;
38226;SDS011;24026;49.446;8.576;2023-02-17T00:06:50;129.35;;;115.65;;
38226;SDS011;24026;49.446;8.576;2023-02-17T00:09:11;127.25;;;113.70;;
38226;SDS011;24026;49.446;8.576;2023-02-17T00:11:31;129.07;;;115.38;;
38226;SDS011;24026;49.446;8.576;2023-02-17T00:13:52;127.53;;;113.72;;
38226;SDS011;24026;49.446;8.576;2023-02-17T00:16:16;128.18;;;114.38;;
38226;SDS011;24026;49.446;8.576;2023-02-17T00:18:39;127.70;;;114.05;;
38226;SDS011;24026;49.446;8.576;2023-02-17T00:20:59;128.75;;;114.82;;
38226;SDS011;24026;49.446;8.576;2023-02-17T00:23:20;128.30;;;114.55;;
38226;SDS011;24026;49.446;8.576;2023-02-17T00:25:40;129.18;;;115.45;;
38226;SDS011;24026;49.446;8.576;2023-02-17T00:28:01;126.28;;;112.65;;
38226;SDS011;24026;49.446;8.576;2023-02-17T00:30:21;127.55;;;113.82;;
38226;SDS011;24026;49.446;8.576;2023-02-17T00:32:41;128.75;;;115.05;;
38226;SDS011;24026;49.446;8.576;2023-02-17T00:35:02;129.23;;;115.28;;
38226;SDS011;24026;49.446;8.576;2023-02-17T00:37:23;127.80;;;114.10;;
38226;SDS011;24026;49.446;8.576;2023-02-17T00:39:44;127.80;;;114.25;;
38226;SDS011;24026;49.446;8.576;2023-02-17T00:42:04;126.97;;;113.38;;
38226;SDS011;24026;49.446;8.576;2023-02-17T00:44:25;128.32;;;114.35;;
38226;SDS011;24026;49.446;8.576;2023-02-17T00:46:45;127.63;;;114.07;;
38226;SDS011;24026;49.446;8.576;2023-02-17T00:49:06;127.22;;;113.68;;
38226;SDS011;24026;49.446;8.576;2023-02-17T00:51:26;127.40;;;113.80;;
38226;SDS011;24026;49.446;8.576;2023-02-17T00:53:47;126.95;;;113.45;;
38226;SDS011;24026;49.446;8.576;2023-02-17T00:56:08;126.43;;;112.97;;
38226;SDS011;24026;49.446;8.576;2023-02-17T00:58:28;126.82;;;113.35;;
38226;SDS011;24026;49.446;8.576;2023-02-17T01:00:49;126.80;;;113.20;;
38226;SDS011;24026;49.446;8.576;2023-02-17T01:03:09;127.53;;;113.88;;
38226;SDS011;24026;49.446;8.576;2023-02-17T01:05:30;126.88;;;113.35;;
38226;SDS011;24026;49.446;8.576;2023-02-17T01:07:50;127.22;;;113.65;;
38226;SDS011;24026;49.446;8.576;2023-02-17T01:10:11;128.52;;;114.88;;
38226;SDS011;24026;49.446;8.576;2023-02-17T01:12:31;127.57;;;113.88;;
38226;SDS011;24026;49.446;8.576;2023-02-17T01:14:52;126.53;;;112.97;;
38226;SDS011;24026;49.446;8.576;2023-02-17T01:17:12;126.88;;;113.43;;
38226;SDS011;24026;49.446;8.576;2023-02-17T01:19:32;126.70;;;113.20;;
38226;SDS011;24026;49.446;8.576;2023-02-17T01:21:53;126.88;;;113.30;;
38226;SDS011;24026;49.446;8.576;2023-02-17T01:24:13;125.57;;;112.20;;
38226;SDS011;24026;49.446;8.576;2023-02-17T01:26:35;128.35;;;114.68;;
38226;SDS011;24026;49.446;8.576;2023-02-17T01:28:56;126.53;;;113.00;;
38226;SDS011;24026;49.446;8.576;2023-02-17T01:31:17;128.10;;;114.53;;
38226;SDS011;24026;49.446;8.576;2023-02-17T01:33:38;127.00;;;113.63;;
38226;SDS011;24026;49.446;8.576;2023-02-17T01:36:02;126.00;;;112.57;;
38226;SDS011;24026;49.446;8.576;2023-02-17T01:38:24;127.82;;;114.30;;
38226;SDS011;24026;49.446;8.576;2023-02-17T01:40:45;127.07;;;113.60;;
38226;SDS011;24026;49.446;8.576;2023-02-17T01:43:09;126.50;;;112.95;;
38226;SDS011;24026;49.446;8.576;2023-02-17T01:45:37;126.25;;;112.75;;
38226;SDS011;24026;49.446;8.576;2023-02-17T01:50:54;126.50;;;113.00;;
38226;SDS011;24026;49.446;8.576;2023-02-17T01:53:21;125.85;;;112.25;;
38226;SDS011;24026;49.446;8.576;2023-02-17T01:55:47;125.20;;;111.78;;
38226;SDS011;24026;49.446;8.576;2023-02-17T01:58:08;126.20;;;112.60;;
38226;SDS011;24026;49.446;8.576;2023-02-17T02:00:33;125.40;;;112.07;;
38226;SDS011;24026;49.446;8.576;2023-02-17T02:02:55;126.05;;;112.55;;
38226;SDS011;24026;49.446;8.576;2023-02-17T02:05:16;126.20;;;112.63;;
38226;SDS011;24026;49.446;8.576;2023-02-17T02:07:39;126.18;;;112.60;;
38226;SDS011;24026;49.446;8.576;2023-02-17T02:10:02;125.28;;;111.90;;
38226;SDS011;24026;49.446;8.576;2023-02-17T02:12:30;125.43;;;111.97;;
38226;SDS011;24026;49.446;8.576;2023-02-17T02:14:53;125.97;;;112.43;;
38226;SDS011;24026;49.446;8.576;2023-02-17T02:18:20;126.10;;;112.57;;
38226;SDS011;24026;49.446;8.576;2023-02-17T02:26:10;125.03;;;111.50;;
38226;SDS011;24026;49.446;8.576;2023-02-17T02:34:15;124.80;;;111.22;;
38226;SDS011;24026;49.446;8.576;2023-02-17T02:39:41;124.00;;;110.50;;
38226;SDS011;24026;49.446;8.576;2023-02-17T02:42:06;123.68;;;110.43;;
38226;SDS011;24026;49.446;8.576;2023-02-17T02:44:31;123.45;;;110.18;;
38226;SDS011;24026;49.446;8.576;2023-02-17T02:47:29;124.75;;;111.43;;
38226;SDS011;24026;49.446;8.576;2023-02-17T02:49:50;123.03;;;109.78;;
38226;SDS011;24026;49.446;8.576;2023-02-17T02:52:18;124.95;;;111.60;;
38226;SDS011;24026;49.446;8.576;2023-02-17T02:54:51;125.07;;;111.53;;
38226;SDS011;24026;49.446;8.576;2023-02-17T03:00:13;123.33;;;110.03;;
38226;SDS011;24026;49.446;8.576;2023-02-17T03:02:55;124.18;;;110.68;;
38226;SDS011;24026;49.446;8.576;2023-02-17T03:10:28;122.75;;;109.35;;
38226;SDS011;24026;49.446;8.576;2023-02-17T03:12:48;123.95;;;110.57;;
38226;SDS011;24026;49.446;8.576;2023-02-17T03:15:11;123.88;;;110.50;;
38226;SDS011;24026;49.446;8.576;2023-02-17T03:17:42;124.07;;;110.78;;
38226;SDS011;24026;49.446;8.576;2023-02-17T03:20:03;124.82;;;111.53;;
38226;SDS011;24026;49.446;8.576;2023-02-17T03:22:26;125.35;;;111.97;;
38226;SDS011;24026;49.446;8.576;2023-02-17T03:24:51;123.70;;;110.30;;
38226;SDS011;24026;49.446;8.576;2023-02-17T03:27:11;124.38;;;111.10;;
38226;SDS011;24026;49.446;8.576;2023-02-17T03:29:32;124.40;;;111.10;;
38226;SDS011;24026;49.446;8.576;2023-02-17T03:31:52;126.18;;;112.60;;
38226;SDS011;24026;49.446;8.576;2023-02-17T03:34:12;124.50;;;111.13;;
38226;SDS011;24026;49.446;8.576;2023-02-17T03:36:33;124.75;;;111.15;;
38226;SDS011;24026;49.446;8.576;2023-02-17T03:38:53;124.50;;;111.20;;
38226;SDS011;24026;49.446;8.576;2023-02-17T03:41:14;124.47;;;111.22;;
38226;SDS011;24026;49.446;8.576;2023-02-17T03:43:34;124.40;;;111.07;;
38226;SDS011;24026;49.446;8.576;2023-02-17T03:45:55;124.25;;;110.97;;
38226;SDS011;24026;49.446;8.576;2023-02-17T03:48:15;123.88;;;110.65;;
38226;SDS011;24026;49.446;8.576;2023-02-17T03:50:35;123.05;;;109.75;;
38226;SDS011;24026;49.446;8.576;2023-02-17T03:52:56;123.43;;;110.22;;
38226;SDS011;24026;49.446;8.576;2023-02-17T03:55:16;123.53;;;110.32;;
38226;SDS011;24026;49.446;8.576;2023-02-17T03:57:36;123.97;;;110.75;;
38226;SDS011;24026;49.446;8.576;2023-02-17T03:59:57;125.25;;;111.85;;
38226;SDS011;24026;49.446;8.576;2023-02-17T04:02:17;124.15;;;110.95;;
38226;SDS011;24026;49.446;8.576;2023-02-17T04:04:38;123.78;;;110.50;;
38226;SDS011;24026;49.446;8.576;2023-02-17T04:06:58;123.05;;;109.85;;
38226;SDS011;24026;49.446;8.576;2023-02-17T04:09:18;124.50;;;111.25;;
38226;SDS011;24026;49.446;8.576;2023-02-17T04:11:39;124.72;;;111.30;;
38226;SDS011;24026;49.446;8.576;2023-02-17T04:13:59;123.95;;;109.95;;
38226;SDS011;24026;49.446;8.576;2023-02-17T04:16:20;123.05;;;109.85;;
38226;SDS011;24026;49.446;8.576;2023-02-17T04:18:40;123.95;;;110.65;;
38226;SDS011;24026;49.446;8.576;2023-02-17T04:21:00;123.40;;;110.10;;
38226;SDS011;24026;49.446;8.576;2023-02-17T04:23:21;123.72;;;110.35;;
38226;SDS011;24026;49.446;8.576;2023-02-17T04:25:42;124.63;;;111.28;;
38226;SDS011;24026;49.446;8.576;2023-02-17T04:28:03;121.82;;;108.55;;
38226;SDS011;24026;49.446;8.576;2023-02-17T04:30:24;123.78;;;110.53;;
38226;SDS011;24026;49.446;8.576;2023-02-17T04:32:44;124.60;;;111.28;;
38226;SDS011;24026;49.446;8.576;2023-02-17T04:35:05;123.93;;;110.43;;
38226;SDS011;24026;49.446;8.576;2023-02-17T04:37:25;123.60;;;110.32;;
38226;SDS011;24026;49.446;8.576;2023-02-17T04:39:46;123.75;;;110.45;;
38226;SDS011;24026;49.446;8.576;2023-02-17T04:42:06;122.22;;;109.10;;
38226;SDS011;24026;49.446;8.576;2023-02-17T04:44:27;123.47;;;110.30;;
38226;SDS011;24026;49.446;8.576;2023-02-17T04:46:47;123.43;;;110.07;;
38226;SDS011;24026;49.446;8.576;2023-02-17T04:49:07;122.78;;;109.50;;
38226;SDS011;24026;49.446;8.576;2023-02-17T04:51:28;124.78;;;111.47;;
38226;SDS011;24026;49.446;8.576;2023-02-17T04:53:48;124.25;;;110.85;;
38226;SDS011;24026;49.446;8.576;2023-02-17T04:56:09;124.00;;;110.72;;
38226;SDS011;24026;49.446;8.576;2023-02-17T04:58:29;123.20;;;110.05;;
38226;SDS011;24026;49.446;8.576;2023-02-17T05:00:50;122.88;;;109.57;;
38226;SDS011;24026;49.446;8.576;2023-02-17T05:03:10;123.82;;;110.32;;
38226;SDS011;24026;49.446;8.576;2023-02-17T05:05:31;122.68;;;109.32;;
38226;SDS011;24026;49.446;8.576;2023-02-17T05:07:51;124.13;;;110.82;;
38226;SDS011;24026;49.446;8.576;2023-02-17T05:10:12;123.55;;;110.15;;
38226;SDS011;24026;49.446;8.576;2023-02-17T05:12:34;124.32;;;111.03;;
38226;SDS011;24026;49.446;8.576;2023-02-17T05:14:54;124.70;;;111.32;;
38226;SDS011;24026;49.446;8.576;2023-02-17T05:17:14;123.80;;;110.35;;
38226;SDS011;24026;49.446;8.576;2023-02-17T05:19:35;124.93;;;111.53;;
38226;SDS011;24026;49.446;8.576;2023-02-17T05:21:55;125.30;;;111.80;;
38226;SDS011;24026;49.446;8.576;2023-02-17T05:24:16;124.82;;;111.45;;
38226;SDS011;24026;49.446;8.576;2023-02-17T05:26:36;125.47;;;112.07;;
38226;SDS011;24026;49.446;8.576;2023-02-17T05:28:57;126.05;;;112.72;;
38226;SDS011;24026;49.446;8.576;2023-02-17T05:31:17;125.10;;;111.85;;
38226;SDS011;24026;49.446;8.576;2023-02-17T05:33:37;126.55;;;113.20;;
38226;SDS011;24026;49.446;8.576;2023-02-17T05:36:02;125.30;;;111.97;;
38226;SDS011;24026;49.446;8.576;2023-02-17T05:38:24;124.90;;;111.60;;
38226;SDS011;24026;49.446;8.576;2023-02-17T05:40:44;127.90;;;114.47;;
38226;SDS011;24026;49.446;8.576;2023-02-17T05:43:05;126.00;;;112.80;;
38226;SDS011;24026;49.446;8.576;2023-02-17T05:45:25;128.18;;;114.50;;
38226;SDS011;24026;49.446;8.576;2023-02-17T05:47:46;127.80;;;114.50;;
38226;SDS011;24026;49.446;8.576;2023-02-17T05:50:06;128.80;;;115.40;;
38226;SDS011;24026;49.446;8.576;2023-02-17T05:52:27;129.68;;;115.90;;
38226;SDS011;24026;49.446;8.576;2023-02-17T05:54:48;128.15;;;114.78;;
38226;SDS011;24026;49.446;8.576;2023-02-17T05:57:08;129.95;;;116.53;;
38226;SDS011;24026;49.446;8.576;2023-02-17T05:59:30;129.40;;;116.03;;
38226;SDS011;24026;49.446;8.576;2023-02-17T06:01:51;129.82;;;116.32;;
38226;SDS011;24026;49.446;8.576;2023-02-17T06:04:12;131.15;;;117.68;;
38226;SDS011;24026;49.446;8.576;2023-02-17T06:06:32;129.85;;;116.35;;
38226;SDS011;24026;49.446;8.576;2023-02-17T06:08:53;129.38;;;115.90;;
38226;SDS011;24026;49.446;8.576;2023-02-17T06:11:13;131.50;;;117.45;;
38226;SDS011;24026;49.446;8.576;2023-02-17T06:13:33;139.15;;;124.38;;
38226;SDS011;24026;49.446;8.576;2023-02-17T06:15:54;176.68;;;158.30;;
38226;SDS011;24026;49.446;8.576;2023-02-17T06:18:15;139.38;;;124.85;;
38226;SDS011;24026;49.446;8.576;2023-02-17T06:20:35;141.10;;;126.20;;
38226;SDS011;24026;49.446;8.576;2023-02-17T06:22:55;142.38;;;127.35;;
38226;SDS011;24026;49.446;8.576;2023-02-17T06:25:16;140.68;;;125.47;;
38226;SDS011;24026;49.446;8.576;2023-02-17T06:27:36;141.25;;;126.40;;
38226;SDS011;24026;49.446;8.576;2023-02-17T06:30:02;140.82;;;126.38;;
38226;SDS011;24026;49.446;8.576;2023-02-17T06:32:23;141.93;;;127.05;;
38226;SDS011;24026;49.446;8.576;2023-02-17T06:34:43;145.55;;;130.35;;
38226;SDS011;24026;49.446;8.576;2023-02-17T06:37:04;146.25;;;130.98;;
38226;SDS011;24026;49.446;8.576;2023-02-17T06:39:24;144.05;;;128.50;;
38226;SDS011;24026;49.446;8.576;2023-02-17T06:41:45;151.88;;;135.93;;
38226;SDS011;24026;49.446;8.576;2023-02-17T06:44:05;186.73;;;167.57;;
38226;SDS011;24026;49.446;8.576;2023-02-17T06:46:27;180.35;;;162.15;;
38226;SDS011;24026;49.446;8.576;2023-02-17T06:48:47;172.45;;;155.07;;
38226;SDS011;24026;49.446;8.576;2023-02-17T06:51:08;159.20;;;142.43;;
38226;SDS011;24026;49.446;8.576;2023-02-17T06:53:28;159.48;;;142.68;;
38226;SDS011;24026;49.446;8.576;2023-02-17T06:55:49;158.25;;;141.25;;
38226;SDS011;24026;49.446;8.576;2023-02-17T06:58:10;158.15;;;141.15;;
38226;SDS011;24026;49.446;8.576;2023-02-17T07:00:30;243.77;;;219.55;;
38226;SDS011;24026;49.446;8.576;2023-02-17T07:02:50;535.20;;;483.63;;
38226;SDS011;24026;49.446;8.576;2023-02-17T07:05:11;393.17;;;352.38;;
38226;SDS011;24026;49.446;8.576;2023-02-17T07:07:31;352.63;;;315.40;;
38226;SDS011;24026;49.446;8.576;2023-02-17T07:09:52;288.38;;;254.68;;
38226;SDS011;24026;49.446;8.576;2023-02-17T07:12:12;250.23;;;213.90;;
38226;SDS011;24026;49.446;8.576;2023-02-17T07:14:33;215.65;;;173.18;;
38226;SDS011;24026;49.446;8.576;2023-02-17T07:16:54;217.25;;;172.77;;
38226;SDS011;24026;49.446;8.576;2023-02-17T07:19:15;224.82;;;177.80;;
38226;SDS011;24026;49.446;8.576;2023-02-17T07:21:36;221.50;;;168.18;;
38226;SDS011;24026;49.446;8.576;2023-02-17T07:23:56;226.93;;;176.52;;
38226;SDS011;24026;49.446;8.576;2023-02-17T07:26:17;216.23;;;164.02;;
38226;SDS011;24026;49.446;8.576;2023-02-17T07:28:38;224.43;;;167.70;;
38226;SDS011;24026;49.446;8.576;2023-02-17T07:31:09;207.55;;;160.82;;
38226;SDS011;24026;49.446;8.576;2023-02-17T07:33:32;198.07;;;159.40;;
38226;SDS011;24026;49.446;8.576;2023-02-17T07:35:53;200.38;;;151.27;;
38226;SDS011;24026;49.446;8.576;2023-02-17T07:38:14;205.73;;;157.07;;
38226;SDS011;24026;49.446;8.576;2023-02-17T07:40:34;196.35;;;159.68;;
38226;SDS011;24026;49.446;8.576;2023-02-17T07:42:55;206.75;;;156.50;;
38226;SDS011;24026;49.446;8.576;2023-02-17T07:45:16;205.60;;;157.95;;
38226;SDS011;24026;49.446;8.576;2023-02-17T07:47:37;213.98;;;160.45;;
38226;SDS011;24026;49.446;8.576;2023-02-17T07:49:57;212.70;;;162.60;;
38226;SDS011;24026;49.446;8.576;2023-02-17T07:52:17;206.48;;;161.15;;
38226;SDS011;24026;49.446;8.576;2023-02-17T07:54:38;212.23;;;162.25;;
38226;SDS011;24026;49.446;8.576;2023-02-17T07:56:58;202.50;;;160.75;;
38226;SDS011;24026;49.446;8.576;2023-02-17T07:59:19;203.70;;;155.90;;
38226;SDS011;24026;49.446;8.576;2023-02-17T08:01:40;198.27;;;155.98;;
38226;SDS011;24026;49.446;8.576;2023-02-17T08:04:00;210.90;;;158.55;;
38226;SDS011;24026;49.446;8.576;2023-02-17T08:06:22;214.00;;;158.20;;
38226;SDS011;24026;49.446;8.576;2023-02-17T08:08:44;202.30;;;158.55;;
38226;SDS011;24026;49.446;8.576;2023-02-17T08:11:24;205.10;;;154.95;;
38226;SDS011;24026;49.446;8.576;2023-02-17T08:14:03;214.05;;;157.40;;
38226;SDS011;24026;49.446;8.576;2023-02-17T08:16:23;211.15;;;156.95;;
38226;SDS011;24026;49.446;8.576;2023-02-17T08:18:47;204.93;;;155.82;;
38226;SDS011;24026;49.446;8.576;2023-02-17T08:21:07;209.98;;;156.68;;
38226;SDS011;24026;49.446;8.576;2023-02-17T08:23:27;205.48;;;153.27;;
38226;SDS011;24026;49.446;8.576;2023-02-17T08:25:49;210.20;;;159.23;;
38226;SDS011;24026;49.446;8.576;2023-02-17T08:28:09;212.52;;;160.23;;
38226;SDS011;24026;49.446;8.576;2023-02-17T08:30:33;219.15;;;161.15;;
38226;SDS011;24026;49.446;8.576;2023-02-17T08:32:55;194.93;;;156.38;;
38226;SDS011;24026;49.446;8.576;2023-02-17T08:35:16;207.60;;;157.23;;
38226;SDS011;24026;49.446;8.576;2023-02-17T08:37:41;209.45;;;154.50;;
38226;SDS011;24026;49.446;8.576;2023-02-17T08:40:02;206.70;;;153.95;;
38226;SDS011;24026;49.446;8.576;2023-02-17T08:42:24;206.60;;;153.55;;
38226;SDS011;24026;49.446;8.576;2023-02-17T08:44:45;200.90;;;152.77;;
38226;SDS011;24026;49.446;8.576;2023-02-17T08:47:06;267.58;;;229.00;;
38226;SDS011;24026;49.446;8.576;2023-02-17T08:49:26;494.15;;;444.27;;
38226;SDS011;24026;49.446;8.576;2023-02-17T08:51:49;299.75;;;266.95;;
38226;SDS011;24026;49.446;8.576;2023-02-17T08:54:10;260.15;;;226.98;;
38226;SDS011;24026;49.446;8.576;2023-02-17T08:56:31;223.98;;;193.77;;
38226;SDS011;24026;49.446;8.576;2023-02-17T08:58:52;222.60;;;184.52;;
38226;SDS011;24026;49.446;8.576;2023-02-17T09:01:14;212.48;;;169.70;;
38226;SDS011;24026;49.446;8.576;2023-02-17T09:03:35;199.57;;;159.20;;
38226;SDS011;24026;49.446;8.576;2023-02-17T09:05:57;195.75;;;160.00;;
38226;SDS011;24026;49.446;8.576;2023-02-17T09:08:17;199.38;;;159.02;;
38226;SDS011;24026;49.446;8.576;2023-02-17T09:10:38;194.50;;;157.45;;
38226;SDS011;24026;49.446;8.576;2023-02-17T09:12:58;194.13;;;158.90;;
38226;SDS011;24026;49.446;8.576;2023-02-17T09:15:20;198.52;;;158.88;;
38226;SDS011;24026;49.446;8.576;2023-02-17T09:17:40;187.77;;;160.63;;
38226;SDS011;24026;49.446;8.576;2023-02-17T09:20:01;205.93;;;170.00;;
38226;SDS011;24026;49.446;8.576;2023-02-17T09:22:22;203.13;;;176.93;;
38226;SDS011;24026;49.446;8.576;2023-02-17T09:24:43;200.70;;;173.55;;
38226;SDS011;24026;49.446;8.576;2023-02-17T09:27:05;190.02;;;167.60;;
38226;SDS011;24026;49.446;8.576;2023-02-17T09:29:25;191.48;;;166.77;;
38226;SDS011;24026;49.446;8.576;2023-02-17T09:31:46;193.20;;;166.68;;
38226;SDS011;24026;49.446;8.576;2023-02-17T09:34:07;191.32;;;164.68;;
38226;SDS011;24026;49.446;8.576;2023-02-17T09:36:28;186.35;;;163.43;;
38226;SDS011;24026;49.446;8.576;2023-02-17T09:38:50;197.80;;;164.82;;
38226;SDS011;24026;49.446;8.576;2023-02-17T09:43:45;197.43;;;164.65;;
38226;SDS011;24026;49.446;8.576;2023-02-17T09:46:15;192.25;;;162.98;;
38226;SDS011;24026;49.446;8.576;2023-02-17T09:49:00;187.90;;;161.77;;
38226;SDS011;24026;49.446;8.576;2023-02-17T09:51:32;198.38;;;159.63;;
38226;SDS011;24026;49.446;8.576;2023-02-17T09:54:02;203.73;;;161.23;;
38226;SDS011;24026;49.446;8.576;2023-02-17T09:56:27;197.77;;;160.70;;
38226;SDS011;24026;49.446;8.576;2023-02-17T09:58:53;204.23;;;160.77;;
38226;SDS011;24026;49.446;8.576;2023-02-17T10:01:19;201.68;;;162.43;;
38226;SDS011;24026;49.446;8.576;2023-02-17T10:04:21;224.70;;;185.18;;
38226;SDS011;24026;49.446;8.576;2023-02-17T10:06:48;237.48;;;194.75;;
38226;SDS011;24026;49.446;8.576;2023-02-17T10:12:03;207.85;;;182.02;;
38226;SDS011;24026;49.446;8.576;2023-02-17T10:14:42;203.95;;;177.10;;
38226;SDS011;24026;49.446;8.576;2023-02-17T10:17:09;203.98;;;171.27;;
38226;SDS011;24026;49.446;8.576;2023-02-17T10:19:53;188.77;;;167.93;;
38226;SDS011;24026;49.446;8.576;2023-02-17T10:22:16;191.25;;;166.68;;
38226;SDS011;24026;49.446;8.576;2023-02-17T10:24:39;190.23;;;165.27;;
38226;SDS011;24026;49.446;8.576;2023-02-17T10:27:03;188.88;;;164.65;;
38226;SDS011;24026;49.446;8.576;2023-02-17T10:32:20;189.75;;;160.57;;
38226;SDS011;24026;49.446;8.576;2023-02-17T10:34:55;192.98;;;163.30;;
38226;SDS011;24026;49.446;8.576;2023-02-17T10:39:48;200.98;;;164.90;;
38226;SDS011;24026;49.446;8.576;2023-02-17T10:42:21;193.95;;;166.07;;
38226;SDS011;24026;49.446;8.576;2023-02-17T10:44:45;214.80;;;169.23;;
38226;SDS011;24026;49.446;8.576;2023-02-17T10:47:08;219.70;;;182.18;;
38226;SDS011;24026;49.446;8.576;2023-02-17T10:49:38;224.57;;;178.10;;
38226;SDS011;24026;49.446;8.576;2023-02-17T10:52:12;227.17;;;173.63;;
38226;SDS011;24026;49.446;8.576;2023-02-17T10:54:41;235.73;;;177.40;;
38226;SDS011;24026;49.446;8.576;2023-02-17T10:57:08;218.35;;;172.50;;
38226;SDS011;24026;49.446;8.576;2023-02-17T10:59:53;217.60;;;168.98;;
38226;SDS011;24026;49.446;8.576;2023-02-17T11:02:24;224.25;;;163.23;;
38226;SDS011;24026;49.446;8.576;2023-02-17T11:04:53;215.77;;;161.60;;
38226;SDS011;24026;49.446;8.576;2023-02-17T11:07:15;211.82;;;164.88;;
38226;SDS011;24026;49.446;8.576;2023-02-17T11:09:38;237.48;;;162.80;;
38226;SDS011;24026;49.446;8.576;2023-02-17T11:12:10;212.02;;;160.65;;
38226;SDS011;24026;49.446;8.576;2023-02-17T11:14:37;231.48;;;161.48;;
38226;SDS011;24026;49.446;8.576;2023-02-17T11:17:15;233.10;;;174.32;;
38226;SDS011;24026;49.446;8.576;2023-02-17T11:19:52;253.80;;;199.85;;
38226;SDS011;24026;49.446;8.576;2023-02-17T11:24:59;235.38;;;182.73;;
38226;SDS011;24026;49.446;8.576;2023-02-17T11:27:22;235.68;;;179.57;;
38226;SDS011;24026;49.446;8.576;2023-02-17T11:29:44;239.48;;;177.43;;
38226;SDS011;24026;49.446;8.576;2023-02-17T11:32:06;233.50;;;175.68;;
38226;SDS011;24026;49.446;8.576;2023-02-17T11:34:30;235.07;;;172.68;;
38226;SDS011;24026;49.446;8.576;2023-02-17T11:37:01;231.77;;;172.98;;
38226;SDS011;24026;49.446;8.576;2023-02-17T11:39:28;222.55;;;170.23;;
38226;SDS011;24026;49.446;8.576;2023-02-17T11:41:49;236.45;;;172.60;;
38226;SDS011;24026;49.446;8.576;2023-02-17T11:44:09;302.25;;;232.10;;
38226;SDS011;24026;49.446;8.576;2023-02-17T11:46:39;266.00;;;216.07;;
38226;SDS011;24026;49.446;8.576;2023-02-17T12:03:18;222.40;;;166.63;;
38226;SDS011;24026;49.446;8.576;2023-02-17T12:11:31;245.27;;;170.45;;
38226;SDS011;24026;49.446;8.576;2023-02-17T12:13:59;234.48;;;169.45;;
38226;SDS011;24026;49.446;8.576;2023-02-17T12:16:27;221.05;;;166.93;;
38226;SDS011;24026;49.446;8.576;2023-02-17T12:22:13;220.77;;;160.68;;
38226;SDS011;24026;49.446;8.576;2023-02-17T12:35:18;207.13;;;157.98;;
38226;SDS011;24026;49.446;8.576;2023-02-17T12:37:58;201.88;;;153.95;;
38226;SDS011;24026;49.446;8.576;2023-02-17T12:41:24;205.73;;;155.35;;
38226;SDS011;24026;49.446;8.576;2023-02-17T12:43:35;200.63;;;154.23;;
38226;SDS011;24026;49.446;8.576;2023-02-17T12:46:02;205.48;;;155.80;;
38226;SDS011;24026;49.446;8.576;2023-02-17T12:51:15;185.75;;;150.85;;
38226;SDS011;24026;49.446;8.576;2023-02-17T12:53:41;204.38;;;151.63;;
38226;SDS011;24026;49.446;8.576;2023-02-17T12:56:03;182.90;;;151.02;;
38226;SDS011;24026;49.446;8.576;2023-02-17T12:58:39;189.55;;;151.50;;
38226;SDS011;24026;49.446;8.576;2023-02-17T13:01:04;194.57;;;150.35;;
38226;SDS011;24026;49.446;8.576;2023-02-17T13:03:30;181.30;;;150.35;;
38226;SDS011;24026;49.446;8.576;2023-02-17T13:11:13;172.07;;;147.30;;
38226;SDS011;24026;49.446;8.576;2023-02-17T13:13:45;175.95;;;146.48;;
38226;SDS011;24026;49.446;8.576;2023-02-17T13:16:12;179.82;;;147.13;;
38226;SDS011;24026;49.446;8.576;2023-02-17T13:18:34;167.20;;;146.05;;
38226;SDS011;24026;49.446;8.576;2023-02-17T13:23:30;170.00;;;145.63;;
38226;SDS011;24026;49.446;8.576;2023-02-17T13:28:32;173.65;;;144.27;;
38226;SDS011;24026;49.446;8.576;2023-02-17T13:31:06;176.77;;;145.82;;
38226;SDS011;24026;49.446;8.576;2023-02-17T13:33:56;166.85;;;144.95;;
38226;SDS011;24026;49.446;8.576;2023-02-17T13:36:33;160.27;;;142.68;;
38226;SDS011;24026;49.446;8.576;2023-02-17T13:38:57;162.32;;;139.40;;
38226;SDS011;24026;49.446;8.576;2023-02-17T13:41:20;159.23;;;138.85;;
38226;SDS011;24026;49.446;8.576;2023-02-17T13:43:41;167.93;;;138.43;;
38226;SDS011;24026;49.446;8.576;2023-02-17T13:46:02;166.75;;;137.43;;
38226;SDS011;24026;49.446;8.576;2023-02-17T13:48:26;163.90;;;136.77;;
38226;SDS011;24026;49.446;8.576;2023-02-17T13:50:50;161.52;;;137.25;;
38226;SDS011;24026;49.446;8.576;2023-02-17T13:53:21;157.05;;;135.95;;
38226;SDS011;24026;49.446;8.576;2023-02-17T13:55:43;155.35;;;134.27;;
38226;SDS011;24026;49.446;8.576;2023-02-17T13:58:03;166.77;;;136.05;;
38226;SDS011;24026;49.446;8.576;2023-02-17T14:00:28;159.10;;;134.15;;
38226;SDS011;24026;49.446;8.576;2023-02-17T14:07:53;161.32;;;135.80;;
38226;SDS011;24026;49.446;8.576;2023-02-17T14:10:22;163.40;;;135.63;;
38226;SDS011;24026;49.446;8.576;2023-02-17T14:12:44;154.70;;;134.32;;
38226;SDS011;24026;49.446;8.576;2023-02-17T14:15:12;154.32;;;133.40;;
38226;SDS011;24026;49.446;8.576;2023-02-17T14:17:35;152.73;;;133.48;;
38226;SDS011;24026;49.446;8.576;2023-02-17T14:19:55;158.80;;;131.70;;
38226;SDS011;24026;49.446;8.576;2023-02-17T14:22:49;154.18;;;132.48;;
38226;SDS011;24026;49.446;8.576;2023-02-17T14:25:06;154.45;;;131.10;;
38226;SDS011;24026;49.446;8.576;2023-02-17T14:27:40;151.77;;;131.30;;
38226;SDS011;24026;49.446;8.576;2023-02-17T14:30:05;155.23;;;132.00;;
38226;SDS011;24026;49.446;8.576;2023-02-17T14:32:33;159.43;;;132.05;;
38226;SDS011;24026;49.446;8.576;2023-02-17T14:39:55;154.63;;;128.27;;
38226;SDS011;24026;49.446;8.576;2023-02-17T14:42:16;149.98;;;132.00;;
38226;SDS011;24026;49.446;8.576;2023-02-17T14:44:36;156.70;;;133.23;;
38226;SDS011;24026;49.446;8.576;2023-02-17T14:46:57;156.85;;;133.70;;
38226;SDS011;24026;49.446;8.576;2023-02-17T14:49:18;154.90;;;133.55;;
38226;SDS011;24026;49.446;8.576;2023-02-17T14:51:38;154.02;;;134.13;;
38226;SDS011;24026;49.446;8.576;2023-02-17T14:54:00;152.25;;;135.30;;
38226;SDS011;24026;49.446;8.576;2023-02-17T14:56:26;156.55;;;134.18;;
38226;SDS011;24026;49.446;8.576;2023-02-17T14:58:53;149.02;;;132.27;;
38226;SDS011;24026;49.446;8.576;2023-02-17T15:01:16;153.20;;;131.52;;
38226;SDS011;24026;49.446;8.576;2023-02-17T15:03:38;153.15;;;132.45;;
38226;SDS011;24026;49.446;8.576;2023-02-17T15:05:59;161.07;;;132.50;;
38226;SDS011;24026;49.446;8.576;2023-02-17T15:08:20;148.50;;;131.13;;
38226;SDS011;24026;49.446;8.576;2023-02-17T15:10:48;156.52;;;132.02;;
38226;SDS011;24026;49.446;8.576;2023-02-17T15:13:13;150.85;;;131.65;;